sensor_id;sensor_type;location;lat;lon;timestamp;P1;durP1;ratioP1;P2;durP2;ratioP2
10711;SDS011;5407;51.234;6.804;2024-03-06T00:00:59;26.97;;;21.53;;
10711;SDS011;5407;51.234;6.804;2024-03-06T00:03:27;41.50;;;33.97;;
10711;SDS011;5407;51.234;6.804;2024-03-06T00:05:54;52.80;;;45.57;;
10711;SDS011;5407;51.234;6.804;2024-03-06T00:08:21;53.17;;;46.23;;
10711;SDS011;5407;51.234;6.804;2024-03-06T00:10:48;45.13;;;37.27;;
10711;SDS011;5407;51.234;6.804;2024-03-06T00:13:15;33.90;;;29.43;;
10711;SDS011;5407;51.234;6.804;2024-03-06T00:15:42;27.80;;;24.67;;
10711;SDS011;5407;51.234;6.804;2024-03-06T00:18:09;27.53;;;23.67;;
10711;SDS011;5407;51.234;6.804;2024-03-06T00:20:37;29.80;;;23.67;;
10711;SDS011;5407;51.234;6.804;2024-03-06T00:23:06;28.53;;;22.27;;
10711;SDS011;5407;51.234;6.804;2024-03-06T00:25:32;26.47;;;23.10;;
10711;SDS011;5407;51.234;6.804;2024-03-06T00:27:59;24.40;;;21.43;;
10711;SDS011;5407;51.234;6.804;2024-03-06T00:30:26;25.20;;;21.47;;
10711;SDS011;5407;51.234;6.804;2024-03-06T00:32:52;24.97;;;21.30;;
10711;SDS011;5407;51.234;6.804;2024-03-06T00:35:19;23.33;;;20.87;;
10711;SDS011;5407;51.234;6.804;2024-03-06T00:37:48;21.73;;;19.53;;
10711;SDS011;5407;51.234;6.804;2024-03-06T00:40:15;22.93;;;20.03;;
10711;SDS011;5407;51.234;6.804;2024-03-06T00:42:42;23.47;;;20.80;;
10711;SDS011;5407;51.234;6.804;2024-03-06T00:45:09;25.63;;;20.77;;
10711;SDS011;5407;51.234;6.804;2024-03-06T00:47:36;22.93;;;20.50;;
10711;SDS011;5407;51.234;6.804;2024-03-06T00:50:03;22.17;;;19.80;;
10711;SDS011;5407;51.234;6.804;2024-03-06T00:52:32;23.83;;;20.50;;
10711;SDS011;5407;51.234;6.804;2024-03-06T00:55:01;22.93;;;19.47;;
10711;SDS011;5407;51.234;6.804;2024-03-06T00:57:28;21.03;;;18.50;;
10711;SDS011;5407;51.234;6.804;2024-03-06T00:59:54;23.93;;;19.90;;
10711;SDS011;5407;51.234;6.804;2024-03-06T01:02:21;23.97;;;19.73;;
10711;SDS011;5407;51.234;6.804;2024-03-06T01:04:48;21.83;;;19.30;;
10711;SDS011;5407;51.234;6.804;2024-03-06T01:07:15;22.27;;;19.87;;
10711;SDS011;5407;51.234;6.804;2024-03-06T01:09:42;23.07;;;19.67;;
10711;SDS011;5407;51.234;6.804;2024-03-06T01:12:10;22.60;;;20.23;;
10711;SDS011;5407;51.234;6.804;2024-03-06T01:14:37;21.47;;;19.20;;
10711;SDS011;5407;51.234;6.804;2024-03-06T01:17:04;23.47;;;19.27;;
10711;SDS011;5407;51.234;6.804;2024-03-06T01:19:31;21.63;;;19.33;;
10711;SDS011;5407;51.234;6.804;2024-03-06T01:21:58;23.87;;;19.50;;
10711;SDS011;5407;51.234;6.804;2024-03-06T01:24:25;22.07;;;19.33;;
10711;SDS011;5407;51.234;6.804;2024-03-06T01:26:52;21.27;;;18.10;;
10711;SDS011;5407;51.234;6.804;2024-03-06T01:29:20;20.77;;;18.50;;
10711;SDS011;5407;51.234;6.804;2024-03-06T01:31:47;22.80;;;19.13;;
10711;SDS011;5407;51.234;6.804;2024-03-06T01:34:14;22.97;;;19.27;;
10711;SDS011;5407;51.234;6.804;2024-03-06T01:36:41;26.17;;;18.90;;
10711;SDS011;5407;51.234;6.804;2024-03-06T01:39:08;22.20;;;19.87;;
10711;SDS011;5407;51.234;6.804;2024-03-06T01:41:35;22.70;;;19.27;;
10711;SDS011;5407;51.234;6.804;2024-03-06T01:44:02;23.07;;;18.97;;
10711;SDS011;5407;51.234;6.804;2024-03-06T01:46:31;24.07;;;19.63;;
10711;SDS011;5407;51.234;6.804;2024-03-06T01:48:57;20.47;;;18.37;;
10711;SDS011;5407;51.234;6.804;2024-03-06T01:51:25;23.17;;;19.40;;
10711;SDS011;5407;51.234;6.804;2024-03-06T01:53:52;22.03;;;18.77;;
10711;SDS011;5407;51.234;6.804;2024-03-06T01:56:20;22.50;;;19.53;;
10711;SDS011;5407;51.234;6.804;2024-03-06T01:58:47;22.07;;;19.47;;
10711;SDS011;5407;51.234;6.804;2024-03-06T02:01:17;22.43;;;19.63;;
10711;SDS011;5407;51.234;6.804;2024-03-06T02:03:45;21.40;;;19.10;;
10711;SDS011;5407;51.234;6.804;2024-03-06T02:06:13;21.43;;;18.67;;
10711;SDS011;5407;51.234;6.804;2024-03-06T02:08:44;21.30;;;18.30;;
10711;SDS011;5407;51.234;6.804;2024-03-06T02:11:11;24.20;;;20.13;;
10711;SDS011;5407;51.234;6.804;2024-03-06T02:13:38;21.70;;;19.23;;
10711;SDS011;5407;51.234;6.804;2024-03-06T02:16:06;22.20;;;19.90;;
10711;SDS011;5407;51.234;6.804;2024-03-06T02:18:34;22.87;;;19.47;;
10711;SDS011;5407;51.234;6.804;2024-03-06T02:21:03;23.03;;;19.47;;
10711;SDS011;5407;51.234;6.804;2024-03-06T02:23:33;22.70;;;19.23;;
10711;SDS011;5407;51.234;6.804;2024-03-06T02:26:00;25.73;;;19.80;;
10711;SDS011;5407;51.234;6.804;2024-03-06T02:28:27;23.00;;;19.67;;
10711;SDS011;5407;51.234;6.804;2024-03-06T02:30:55;22.57;;;20.17;;
10711;SDS011;5407;51.234;6.804;2024-03-06T02:33:22;22.87;;;19.80;;
10711;SDS011;5407;51.234;6.804;2024-03-06T02:35:48;21.03;;;18.73;;
10711;SDS011;5407;51.234;6.804;2024-03-06T02:38:21;21.57;;;19.17;;
10711;SDS011;5407;51.234;6.804;2024-03-06T02:40:48;25.17;;;19.77;;
10711;SDS011;5407;51.234;6.804;2024-03-06T02:43:15;23.20;;;20.63;;
10711;SDS011;5407;51.234;6.804;2024-03-06T02:45:42;23.20;;;20.73;;
10711;SDS011;5407;51.234;6.804;2024-03-06T02:48:09;24.00;;;21.40;;
10711;SDS011;5407;51.234;6.804;2024-03-06T02:50:36;23.13;;;20.63;;
10711;SDS011;5407;51.234;6.804;2024-03-06T02:53:03;23.17;;;19.83;;
10711;SDS011;5407;51.234;6.804;2024-03-06T02:55:31;21.67;;;19.37;;
10711;SDS011;5407;51.234;6.804;2024-03-06T02:58:00;22.83;;;20.00;;
10711;SDS011;5407;51.234;6.804;2024-03-06T03:00:28;25.27;;;20.43;;
10711;SDS011;5407;51.234;6.804;2024-03-06T03:02:56;26.63;;;21.27;;
10711;SDS011;5407;51.234;6.804;2024-03-06T03:05:23;25.47;;;20.73;;
10711;SDS011;5407;51.234;6.804;2024-03-06T03:07:50;25.30;;;22.33;;
10711;SDS011;5407;51.234;6.804;2024-03-06T03:10:18;26.03;;;22.83;;
10711;SDS011;5407;51.234;6.804;2024-03-06T03:12:46;28.90;;;23.27;;
10711;SDS011;5407;51.234;6.804;2024-03-06T03:15:13;30.07;;;24.73;;
10711;SDS011;5407;51.234;6.804;2024-03-06T03:17:40;28.67;;;23.87;;
10711;SDS011;5407;51.234;6.804;2024-03-06T03:20:07;27.43;;;23.33;;
10711;SDS011;5407;51.234;6.804;2024-03-06T03:22:36;27.97;;;23.87;;
10711;SDS011;5407;51.234;6.804;2024-03-06T03:25:04;27.20;;;23.60;;
10711;SDS011;5407;51.234;6.804;2024-03-06T03:27:33;27.60;;;24.63;;
10711;SDS011;5407;51.234;6.804;2024-03-06T03:30:01;27.30;;;23.87;;
10711;SDS011;5407;51.234;6.804;2024-03-06T03:32:31;29.10;;;23.37;;
10711;SDS011;5407;51.234;6.804;2024-03-06T03:34:57;26.77;;;23.87;;
10711;SDS011;5407;51.234;6.804;2024-03-06T03:37:24;28.57;;;23.30;;
10711;SDS011;5407;51.234;6.804;2024-03-06T03:39:51;27.50;;;23.40;;
10711;SDS011;5407;51.234;6.804;2024-03-06T03:42:18;27.40;;;22.93;;
10711;SDS011;5407;51.234;6.804;2024-03-06T03:44:45;31.13;;;24.40;;
10711;SDS011;5407;51.234;6.804;2024-03-06T03:47:13;29.63;;;24.73;;
10711;SDS011;5407;51.234;6.804;2024-03-06T03:49:40;29.20;;;25.37;;
10711;SDS011;5407;51.234;6.804;2024-03-06T03:52:07;29.63;;;25.10;;
10711;SDS011;5407;51.234;6.804;2024-03-06T03:54:34;30.60;;;25.67;;
10711;SDS011;5407;51.234;6.804;2024-03-06T03:57:01;31.60;;;26.70;;
10711;SDS011;5407;51.234;6.804;2024-03-06T03:59:28;30.43;;;26.07;;
10711;SDS011;5407;51.234;6.804;2024-03-06T04:01:55;32.33;;;27.23;;
10711;SDS011;5407;51.234;6.804;2024-03-06T04:04:24;32.27;;;26.83;;
10711;SDS011;5407;51.234;6.804;2024-03-06T04:06:51;33.60;;;26.20;;
10711;SDS011;5407;51.234;6.804;2024-03-06T04:09:18;31.87;;;27.80;;
10711;SDS011;5407;51.234;6.804;2024-03-06T04:11:44;32.33;;;26.47;;
10711;SDS011;5407;51.234;6.804;2024-03-06T04:14:11;31.67;;;27.17;;
10711;SDS011;5407;51.234;6.804;2024-03-06T04:16:39;31.07;;;26.23;;
10711;SDS011;5407;51.234;6.804;2024-03-06T04:19:05;29.63;;;26.23;;
10711;SDS011;5407;51.234;6.804;2024-03-06T04:21:34;32.80;;;26.20;;
10711;SDS011;5407;51.234;6.804;2024-03-06T04:24:01;33.43;;;27.77;;
10711;SDS011;5407;51.234;6.804;2024-03-06T04:26:28;31.00;;;25.70;;
10711;SDS011;5407;51.234;6.804;2024-03-06T04:28:54;31.73;;;25.77;;
10711;SDS011;5407;51.234;6.804;2024-03-06T04:31:21;31.53;;;26.40;;
10711;SDS011;5407;51.234;6.804;2024-03-06T04:33:48;32.90;;;26.53;;
10711;SDS011;5407;51.234;6.804;2024-03-06T04:36:15;33.80;;;25.73;;
10711;SDS011;5407;51.234;6.804;2024-03-06T04:38:43;30.67;;;26.27;;
10711;SDS011;5407;51.234;6.804;2024-03-06T04:41:10;32.43;;;25.67;;
10711;SDS011;5407;51.234;6.804;2024-03-06T04:43:37;32.47;;;26.43;;
10711;SDS011;5407;51.234;6.804;2024-03-06T04:46:04;35.30;;;27.03;;
10711;SDS011;5407;51.234;6.804;2024-03-06T04:48:31;31.30;;;26.27;;
10711;SDS011;5407;51.234;6.804;2024-03-06T04:50:57;32.23;;;25.83;;
10711;SDS011;5407;51.234;6.804;2024-03-06T04:53:24;32.83;;;25.43;;
10711;SDS011;5407;51.234;6.804;2024-03-06T04:55:52;28.83;;;24.50;;
10711;SDS011;5407;51.234;6.804;2024-03-06T04:58:19;30.17;;;25.87;;
10711;SDS011;5407;51.234;6.804;2024-03-06T05:00:46;31.93;;;25.27;;
10711;SDS011;5407;51.234;6.804;2024-03-06T05:03:13;33.17;;;25.67;;
10711;SDS011;5407;51.234;6.804;2024-03-06T05:05:40;33.57;;;26.47;;
10711;SDS011;5407;51.234;6.804;2024-03-06T05:08:07;33.13;;;26.17;;
10711;SDS011;5407;51.234;6.804;2024-03-06T05:10:35;31.87;;;25.67;;
10711;SDS011;5407;51.234;6.804;2024-03-06T05:13:03;31.97;;;26.17;;
10711;SDS011;5407;51.234;6.804;2024-03-06T05:15:30;31.83;;;26.07;;
10711;SDS011;5407;51.234;6.804;2024-03-06T05:17:57;34.57;;;27.93;;
10711;SDS011;5407;51.234;6.804;2024-03-06T05:20:25;31.60;;;27.37;;
10711;SDS011;5407;51.234;6.804;2024-03-06T05:22:53;34.30;;;26.87;;
10711;SDS011;5407;51.234;6.804;2024-03-06T05:25:20;36.33;;;28.00;;
10711;SDS011;5407;51.234;6.804;2024-03-06T05:27:46;33.93;;;27.43;;
10711;SDS011;5407;51.234;6.804;2024-03-06T05:30:15;34.10;;;26.70;;
10711;SDS011;5407;51.234;6.804;2024-03-06T05:32:42;34.67;;;27.07;;
10711;SDS011;5407;51.234;6.804;2024-03-06T05:35:09;32.43;;;26.23;;
10711;SDS011;5407;51.234;6.804;2024-03-06T05:37:36;33.93;;;27.23;;
10711;SDS011;5407;51.234;6.804;2024-03-06T05:40:04;35.53;;;27.10;;
10711;SDS011;5407;51.234;6.804;2024-03-06T05:42:31;35.47;;;26.73;;
10711;SDS011;5407;51.234;6.804;2024-03-06T05:44:58;31.70;;;25.87;;
10711;SDS011;5407;51.234;6.804;2024-03-06T05:47:31;33.17;;;26.50;;
10711;SDS011;5407;51.234;6.804;2024-03-06T05:49:59;33.90;;;26.27;;
10711;SDS011;5407;51.234;6.804;2024-03-06T05:52:26;35.10;;;27.13;;
10711;SDS011;5407;51.234;6.804;2024-03-06T05:54:52;32.07;;;26.23;;
10711;SDS011;5407;51.234;6.804;2024-03-06T05:57:19;31.23;;;25.80;;
10711;SDS011;5407;51.234;6.804;2024-03-06T05:59:45;30.43;;;25.43;;
10711;SDS011;5407;51.234;6.804;2024-03-06T06:02:12;35.40;;;25.77;;
10711;SDS011;5407;51.234;6.804;2024-03-06T06:04:42;31.10;;;26.07;;
10711;SDS011;5407;51.234;6.804;2024-03-06T06:07:09;36.13;;;26.77;;
10711;SDS011;5407;51.234;6.804;2024-03-06T06:09:36;31.27;;;25.90;;
10711;SDS011;5407;51.234;6.804;2024-03-06T06:12:03;39.00;;;27.67;;
10711;SDS011;5407;51.234;6.804;2024-03-06T06:14:30;35.17;;;28.17;;
10711;SDS011;5407;51.234;6.804;2024-03-06T06:16:57;35.03;;;27.30;;
10711;SDS011;5407;51.234;6.804;2024-03-06T06:19:24;33.10;;;26.43;;
10711;SDS011;5407;51.234;6.804;2024-03-06T06:21:54;31.83;;;25.57;;
10711;SDS011;5407;51.234;6.804;2024-03-06T06:24:21;37.70;;;28.87;;
10711;SDS011;5407;51.234;6.804;2024-03-06T06:26:48;36.03;;;26.50;;
10711;SDS011;5407;51.234;6.804;2024-03-06T06:29:15;34.97;;;27.90;;
10711;SDS011;5407;51.234;6.804;2024-03-06T06:31:41;43.93;;;29.93;;
10711;SDS011;5407;51.234;6.804;2024-03-06T06:34:09;38.83;;;28.80;;
10711;SDS011;5407;51.234;6.804;2024-03-06T06:36:36;35.97;;;28.90;;
10711;SDS011;5407;51.234;6.804;2024-03-06T06:39:07;37.53;;;29.10;;
10711;SDS011;5407;51.234;6.804;2024-03-06T06:41:35;34.97;;;28.73;;
10711;SDS011;5407;51.234;6.804;2024-03-06T06:44:02;36.03;;;29.27;;
10711;SDS011;5407;51.234;6.804;2024-03-06T06:46:29;39.53;;;28.73;;
10711;SDS011;5407;51.234;6.804;2024-03-06T06:48:56;34.23;;;29.03;;
10711;SDS011;5407;51.234;6.804;2024-03-06T06:51:24;37.30;;;29.10;;
10711;SDS011;5407;51.234;6.804;2024-03-06T06:53:51;44.00;;;31.37;;
10711;SDS011;5407;51.234;6.804;2024-03-06T06:56:19;43.63;;;31.63;;
10711;SDS011;5407;51.234;6.804;2024-03-06T06:58:49;49.47;;;31.10;;
10711;SDS011;5407;51.234;6.804;2024-03-06T07:01:16;43.83;;;30.43;;
10711;SDS011;5407;51.234;6.804;2024-03-06T07:03:43;39.73;;;30.57;;
10711;SDS011;5407;51.234;6.804;2024-03-06T07:06:10;42.13;;;31.07;;
10711;SDS011;5407;51.234;6.804;2024-03-06T07:08:37;41.30;;;30.07;;
10711;SDS011;5407;51.234;6.804;2024-03-06T07:11:04;38.87;;;29.40;;
10711;SDS011;5407;51.234;6.804;2024-03-06T07:13:32;36.00;;;29.57;;
10711;SDS011;5407;51.234;6.804;2024-03-06T07:15:59;41.07;;;29.93;;
10711;SDS011;5407;51.234;6.804;2024-03-06T07:18:26;40.33;;;30.90;;
10711;SDS011;5407;51.234;6.804;2024-03-06T07:20:53;49.20;;;34.33;;
10711;SDS011;5407;51.234;6.804;2024-03-06T07:23:19;45.47;;;33.40;;
10711;SDS011;5407;51.234;6.804;2024-03-06T07:25:46;50.03;;;35.30;;
10711;SDS011;5407;51.234;6.804;2024-03-06T07:28:13;46.97;;;33.50;;
10711;SDS011;5407;51.234;6.804;2024-03-06T07:30:41;50.63;;;36.43;;
10711;SDS011;5407;51.234;6.804;2024-03-06T07:33:08;53.70;;;36.30;;
10711;SDS011;5407;51.234;6.804;2024-03-06T07:35:35;58.20;;;39.30;;
10711;SDS011;5407;51.234;6.804;2024-03-06T07:38:03;57.33;;;39.97;;
10711;SDS011;5407;51.234;6.804;2024-03-06T07:40:29;56.53;;;38.17;;
10711;SDS011;5407;51.234;6.804;2024-03-06T07:42:57;63.57;;;40.53;;
10711;SDS011;5407;51.234;6.804;2024-03-06T07:45:25;59.43;;;39.70;;
10711;SDS011;5407;51.234;6.804;2024-03-06T07:47:53;60.87;;;38.33;;
10711;SDS011;5407;51.234;6.804;2024-03-06T07:50:21;57.37;;;39.83;;
10711;SDS011;5407;51.234;6.804;2024-03-06T07:52:54;56.30;;;37.70;;
10711;SDS011;5407;51.234;6.804;2024-03-06T07:55:33;54.70;;;37.87;;
10711;SDS011;5407;51.234;6.804;2024-03-06T07:58:01;55.57;;;36.63;;
10711;SDS011;5407;51.234;6.804;2024-03-06T08:00:39;51.17;;;37.17;;
10711;SDS011;5407;51.234;6.804;2024-03-06T08:03:10;57.10;;;38.77;;
10711;SDS011;5407;51.234;6.804;2024-03-06T08:05:38;58.77;;;39.47;;
10711;SDS011;5407;51.234;6.804;2024-03-06T08:08:08;59.13;;;38.83;;
10711;SDS011;5407;51.234;6.804;2024-03-06T08:10:39;58.87;;;39.40;;
10711;SDS011;5407;51.234;6.804;2024-03-06T08:13:06;52.80;;;36.47;;
10711;SDS011;5407;51.234;6.804;2024-03-06T08:15:34;59.47;;;39.50;;
10711;SDS011;5407;51.234;6.804;2024-03-06T08:18:05;59.40;;;39.50;;
10711;SDS011;5407;51.234;6.804;2024-03-06T08:20:35;63.13;;;37.90;;
10711;SDS011;5407;51.234;6.804;2024-03-06T08:23:02;59.43;;;39.83;;
10711;SDS011;5407;51.234;6.804;2024-03-06T08:25:29;60.97;;;39.57;;
10711;SDS011;5407;51.234;6.804;2024-03-06T08:27:58;57.67;;;38.10;;
10711;SDS011;5407;51.234;6.804;2024-03-06T08:30:25;57.30;;;37.10;;
10711;SDS011;5407;51.234;6.804;2024-03-06T08:32:55;58.07;;;38.57;;
10711;SDS011;5407;51.234;6.804;2024-03-06T08:35:37;60.97;;;37.70;;
10711;SDS011;5407;51.234;6.804;2024-03-06T08:38:04;54.47;;;36.70;;
10711;SDS011;5407;51.234;6.804;2024-03-06T08:40:37;56.53;;;37.37;;
10711;SDS011;5407;51.234;6.804;2024-03-06T08:43:10;53.90;;;34.67;;
10711;SDS011;5407;51.234;6.804;2024-03-06T08:45:38;50.00;;;34.17;;
10711;SDS011;5407;51.234;6.804;2024-03-06T08:48:05;52.43;;;34.83;;
10711;SDS011;5407;51.234;6.804;2024-03-06T08:50:33;50.83;;;33.93;;
10711;SDS011;5407;51.234;6.804;2024-03-06T08:53:06;56.60;;;35.77;;
10711;SDS011;5407;51.234;6.804;2024-03-06T08:55:34;51.90;;;34.53;;
10711;SDS011;5407;51.234;6.804;2024-03-06T08:58:06;50.07;;;34.47;;
10711;SDS011;5407;51.234;6.804;2024-03-06T09:00:39;48.63;;;34.53;;
10711;SDS011;5407;51.234;6.804;2024-03-06T09:03:06;52.77;;;34.97;;
10711;SDS011;5407;51.234;6.804;2024-03-06T09:05:33;52.33;;;34.33;;
10711;SDS011;5407;51.234;6.804;2024-03-06T09:08:00;46.60;;;33.63;;
10711;SDS011;5407;51.234;6.804;2024-03-06T09:10:35;46.90;;;32.70;;
10711;SDS011;5407;51.234;6.804;2024-03-06T09:13:02;46.47;;;31.43;;
10711;SDS011;5407;51.234;6.804;2024-03-06T09:15:32;44.83;;;30.97;;
10711;SDS011;5407;51.234;6.804;2024-03-06T09:18:07;40.47;;;28.37;;
10711;SDS011;5407;51.234;6.804;2024-03-06T09:20:34;39.57;;;27.60;;
10711;SDS011;5407;51.234;6.804;2024-03-06T09:23:00;34.43;;;26.07;;
10711;SDS011;5407;51.234;6.804;2024-03-06T09:25:29;33.20;;;26.80;;
10711;SDS011;5407;51.234;6.804;2024-03-06T09:27:56;35.13;;;25.77;;
10711;SDS011;5407;51.234;6.804;2024-03-06T09:30:25;32.03;;;24.53;;
10711;SDS011;5407;51.234;6.804;2024-03-06T09:32:53;34.20;;;24.73;;
10711;SDS011;5407;51.234;6.804;2024-03-06T09:35:20;32.97;;;25.10;;
10711;SDS011;5407;51.234;6.804;2024-03-06T09:37:47;33.13;;;24.77;;
10711;SDS011;5407;51.234;6.804;2024-03-06T09:40:19;32.90;;;24.17;;
10711;SDS011;5407;51.234;6.804;2024-03-06T09:42:48;34.47;;;24.23;;
10711;SDS011;5407;51.234;6.804;2024-03-06T09:45:16;29.73;;;23.10;;
10711;SDS011;5407;51.234;6.804;2024-03-06T09:47:45;29.83;;;24.40;;
10711;SDS011;5407;51.234;6.804;2024-03-06T09:50:16;33.73;;;24.43;;
10711;SDS011;5407;51.234;6.804;2024-03-06T09:52:55;35.93;;;25.13;;
10711;SDS011;5407;51.234;6.804;2024-03-06T09:55:34;30.90;;;23.90;;
10711;SDS011;5407;51.234;6.804;2024-03-06T09:58:04;29.87;;;24.07;;
10711;SDS011;5407;51.234;6.804;2024-03-06T10:00:31;30.90;;;23.10;;
10711;SDS011;5407;51.234;6.804;2024-03-06T10:02:59;32.90;;;23.03;;
10711;SDS011;5407;51.234;6.804;2024-03-06T10:09:15;30.23;;;22.67;;
10711;SDS011;5407;51.234;6.804;2024-03-06T10:12:24;29.63;;;22.97;;
10711;SDS011;5407;51.234;6.804;2024-03-06T10:22:52;34.07;;;25.93;;
10711;SDS011;5407;51.234;6.804;2024-03-06T10:25:26;36.80;;;25.93;;
10711;SDS011;5407;51.234;6.804;2024-03-06T10:28:04;35.97;;;26.60;;
10711;SDS011;5407;51.234;6.804;2024-03-06T10:30:33;34.90;;;26.07;;
10711;SDS011;5407;51.234;6.804;2024-03-06T10:33:01;32.75;;;24.98;;
10711;SDS011;5407;51.234;6.804;2024-03-06T10:35:29;30.40;;;24.02;;
10711;SDS011;5407;51.234;6.804;2024-03-06T10:37:57;32.00;;;24.70;;
10711;SDS011;5407;51.234;6.804;2024-03-06T10:40:27;29.92;;;25.08;;
10711;SDS011;5407;51.234;6.804;2024-03-06T10:42:58;35.63;;;28.17;;
10711;SDS011;5407;51.234;6.804;2024-03-06T10:45:37;35.58;;;28.83;;
10711;SDS011;5407;51.234;6.804;2024-03-06T10:48:08;35.95;;;28.55;;
10711;SDS011;5407;51.234;6.804;2024-03-06T10:50:37;36.22;;;29.60;;
10711;SDS011;5407;51.234;6.804;2024-03-06T10:53:08;33.15;;;28.55;;
10711;SDS011;5407;51.234;6.804;2024-03-06T10:55:36;34.15;;;29.02;;
10711;SDS011;5407;51.234;6.804;2024-03-06T10:58:04;35.00;;;28.48;;
10711;SDS011;5407;51.234;6.804;2024-03-06T11:00:35;34.13;;;29.85;;
10711;SDS011;5407;51.234;6.804;2024-03-06T11:03:04;36.75;;;30.92;;
10711;SDS011;5407;51.234;6.804;2024-03-06T11:05:34;37.60;;;30.95;;
10711;SDS011;5407;51.234;6.804;2024-03-06T11:08:02;35.97;;;31.38;;
10711;SDS011;5407;51.234;6.804;2024-03-06T11:10:32;36.45;;;31.67;;
10711;SDS011;5407;51.234;6.804;2024-03-06T11:13:00;36.95;;;30.95;;
10711;SDS011;5407;51.234;6.804;2024-03-06T11:15:28;35.00;;;30.90;;
10711;SDS011;5407;51.234;6.804;2024-03-06T11:17:55;34.72;;;30.00;;
10711;SDS011;5407;51.234;6.804;2024-03-06T11:20:22;34.13;;;29.40;;
10711;SDS011;5407;51.234;6.804;2024-03-06T11:23:03;32.63;;;29.13;;
10711;SDS011;5407;51.234;6.804;2024-03-06T11:25:57;33.38;;;29.75;;
10711;SDS011;5407;51.234;6.804;2024-03-06T11:28:28;34.47;;;29.35;;
10711;SDS011;5407;51.234;6.804;2024-03-06T11:30:56;32.08;;;28.17;;
10711;SDS011;5407;51.234;6.804;2024-03-06T11:33:28;31.75;;;27.33;;
10711;SDS011;5407;51.234;6.804;2024-03-06T11:36:16;29.55;;;26.45;;
10711;SDS011;5407;51.234;6.804;2024-03-06T11:38:52;29.75;;;26.25;;
10711;SDS011;5407;51.234;6.804;2024-03-06T11:41:22;28.27;;;25.25;;
10711;SDS011;5407;51.234;6.804;2024-03-06T11:43:50;30.85;;;24.95;;
10711;SDS011;5407;51.234;6.804;2024-03-06T11:46:18;27.35;;;24.40;;
10711;SDS011;5407;51.234;6.804;2024-03-06T11:48:51;27.35;;;24.20;;
10711;SDS011;5407;51.234;6.804;2024-03-06T11:51:20;29.00;;;23.80;;
10711;SDS011;5407;51.234;6.804;2024-03-06T11:53:49;27.40;;;23.52;;
10711;SDS011;5407;51.234;6.804;2024-03-06T11:56:17;26.13;;;23.33;;
10711;SDS011;5407;51.234;6.804;2024-03-06T11:58:46;23.88;;;21.33;;
10711;SDS011;5407;51.234;6.804;2024-03-06T12:01:14;23.90;;;21.42;;
10711;SDS011;5407;51.234;6.804;2024-03-06T12:03:41;23.55;;;21.00;;
10711;SDS011;5407;51.234;6.804;2024-03-06T12:06:09;22.40;;;20.17;;
10711;SDS011;5407;51.234;6.804;2024-03-06T12:08:36;23.23;;;20.65;;
10711;SDS011;5407;51.234;6.804;2024-03-06T12:11:04;20.67;;;18.58;;
10711;SDS011;5407;51.234;6.804;2024-03-06T12:13:33;21.15;;;19.00;;
10711;SDS011;5407;51.234;6.804;2024-03-06T12:16:06;21.70;;;19.48;;
10711;SDS011;5407;51.234;6.804;2024-03-06T12:18:33;21.75;;;19.60;;
10711;SDS011;5407;51.234;6.804;2024-03-06T12:21:01;23.33;;;20.92;;
10711;SDS011;5407;51.234;6.804;2024-03-06T12:23:29;20.95;;;18.75;;
10711;SDS011;5407;51.234;6.804;2024-03-06T12:26:05;20.02;;;18.02;;
10711;SDS011;5407;51.234;6.804;2024-03-06T12:28:34;19.65;;;17.75;;
10711;SDS011;5407;51.234;6.804;2024-03-06T12:31:02;21.33;;;19.05;;
10711;SDS011;5407;51.234;6.804;2024-03-06T12:33:31;21.88;;;19.65;;
10711;SDS011;5407;51.234;6.804;2024-03-06T12:36:02;21.15;;;18.42;;
10711;SDS011;5407;51.234;6.804;2024-03-06T12:38:30;20.05;;;18.00;;
10711;SDS011;5407;51.234;6.804;2024-03-06T12:40:57;22.63;;;20.33;;
10711;SDS011;5407;51.234;6.804;2024-03-06T12:43:25;25.13;;;18.10;;
10711;SDS011;5407;51.234;6.804;2024-03-06T12:45:53;21.23;;;18.08;;
10711;SDS011;5407;51.234;6.804;2024-03-06T12:48:22;17.17;;;15.48;;
10711;SDS011;5407;51.234;6.804;2024-03-06T12:50:51;17.13;;;15.30;;
10711;SDS011;5407;51.234;6.804;2024-03-06T12:53:20;16.75;;;15.00;;
10711;SDS011;5407;51.234;6.804;2024-03-06T12:55:48;15.48;;;12.95;;
10711;SDS011;5407;51.234;6.804;2024-03-06T12:58:15;14.05;;;12.63;;
10711;SDS011;5407;51.234;6.804;2024-03-06T13:00:42;15.65;;;13.63;;
10711;SDS011;5407;51.234;6.804;2024-03-06T13:03:09;14.50;;;12.88;;
10711;SDS011;5407;51.234;6.804;2024-03-06T13:05:35;12.48;;;11.13;;
10711;SDS011;5407;51.234;6.804;2024-03-06T13:08:05;12.02;;;10.75;;
10711;SDS011;5407;51.234;6.804;2024-03-06T13:10:32;13.25;;;10.82;;
10711;SDS011;5407;51.234;6.804;2024-03-06T13:12:58;11.88;;;10.57;;
10711;SDS011;5407;51.234;6.804;2024-03-06T13:15:25;13.10;;;10.77;;
10711;SDS011;5407;51.234;6.804;2024-03-06T13:17:52;11.82;;;10.60;;
10711;SDS011;5407;51.234;6.804;2024-03-06T13:20:19;10.70;;;9.60;;
10711;SDS011;5407;51.234;6.804;2024-03-06T13:22:46;11.13;;;9.90;;
10711;SDS011;5407;51.234;6.804;2024-03-06T13:25:13;11.13;;;9.15;;
10711;SDS011;5407;51.234;6.804;2024-03-06T13:27:40;10.40;;;9.30;;
10711;SDS011;5407;51.234;6.804;2024-03-06T13:30:07;9.98;;;8.93;;
10711;SDS011;5407;51.234;6.804;2024-03-06T13:32:34;12.20;;;9.52;;
10711;SDS011;5407;51.234;6.804;2024-03-06T13:35:01;12.30;;;8.20;;
10711;SDS011;5407;51.234;6.804;2024-03-06T13:37:28;9.77;;;8.55;;
10711;SDS011;5407;51.234;6.804;2024-03-06T13:39:55;9.80;;;8.45;;
10711;SDS011;5407;51.234;6.804;2024-03-06T13:42:27;11.52;;;8.60;;
10711;SDS011;5407;51.234;6.804;2024-03-06T13:44:54;10.57;;;8.75;;
10711;SDS011;5407;51.234;6.804;2024-03-06T13:47:21;11.30;;;8.85;;
10711;SDS011;5407;51.234;6.804;2024-03-06T13:49:48;8.88;;;7.15;;
10711;SDS011;5407;51.234;6.804;2024-03-06T13:52:15;8.40;;;7.57;;
10711;SDS011;5407;51.234;6.804;2024-03-06T13:54:46;10.27;;;7.72;;
10711;SDS011;5407;51.234;6.804;2024-03-06T13:57:13;8.45;;;7.28;;
10711;SDS011;5407;51.234;6.804;2024-03-06T13:59:42;8.43;;;7.53;;
10711;SDS011;5407;51.234;6.804;2024-03-06T14:02:09;15.77;;;11.85;;
10711;SDS011;5407;51.234;6.804;2024-03-06T14:04:35;21.33;;;16.77;;
10711;SDS011;5407;51.234;6.804;2024-03-06T14:07:02;17.35;;;15.35;;
10711;SDS011;5407;51.234;6.804;2024-03-06T14:09:30;17.53;;;15.20;;
10711;SDS011;5407;51.234;6.804;2024-03-06T14:11:56;20.17;;;15.40;;
10711;SDS011;5407;51.234;6.804;2024-03-06T14:14:23;17.67;;;14.73;;
10711;SDS011;5407;51.234;6.804;2024-03-06T14:16:52;18.00;;;15.73;;
10711;SDS011;5407;51.234;6.804;2024-03-06T14:19:18;18.30;;;15.57;;
10711;SDS011;5407;51.234;6.804;2024-03-06T14:21:46;19.43;;;15.53;;
10711;SDS011;5407;51.234;6.804;2024-03-06T14:24:14;18.10;;;14.80;;
10711;SDS011;5407;51.234;6.804;2024-03-06T14:26:41;18.00;;;15.37;;
10711;SDS011;5407;51.234;6.804;2024-03-06T14:29:08;17.07;;;14.93;;
10711;SDS011;5407;51.234;6.804;2024-03-06T14:31:35;19.77;;;15.13;;
10711;SDS011;5407;51.234;6.804;2024-03-06T14:34:04;18.83;;;16.27;;
10711;SDS011;5407;51.234;6.804;2024-03-06T14:36:32;18.00;;;15.30;;
10711;SDS011;5407;51.234;6.804;2024-03-06T14:39:00;19.67;;;17.07;;
10711;SDS011;5407;51.234;6.804;2024-03-06T14:41:26;20.17;;;17.73;;
10711;SDS011;5407;51.234;6.804;2024-03-06T14:43:53;21.33;;;16.37;;
10711;SDS011;5407;51.234;6.804;2024-03-06T14:46:20;21.97;;;17.27;;
10711;SDS011;5407;51.234;6.804;2024-03-06T14:48:47;21.77;;;16.27;;
10711;SDS011;5407;51.234;6.804;2024-03-06T14:51:15;22.17;;;17.40;;
10711;SDS011;5407;51.234;6.804;2024-03-06T14:53:42;21.70;;;17.20;;